Grand Ruby — 3EIU3 — position and weather

sailwx.info

Track history (hours):
 
Tides and Currents Weather Stations Pressure Air Temp Water Temp Dewpoint Dewpoint Depression Visibility Wind Speed Wind Dir Waves Ship Positions

Grand Ruby

Last reported at 2014-Dec-11 20:33 UTC. Time now 2014-Dec-20 20:10 UTC.
Position S 29°60' E 031°46'.
Warning: this ship's position is 8 days out of date.

Length 200 m; draft 9 m.

Type: Cargo ship. MMSI: 372399000.

Date/timePositionNaut miles runAvg speedWind from/ knotsBaromVisibWave heightAir tempDewpointWater temp
2014-Dec-11 20:33S 29°60' E 031°46'1515.3
2014-Dec-11 19:33S 29°56' E 031°29'1514.5
2014-Dec-11 18:33S 29°52' E 031°12'9 8.3
2014-Dec-11 17:30S 29°53' E 031°02'0 0.4
2014-Dec-11 16:30S 29°52' E 031°02'0 0.0
2014-Dec-11 15:30S 29°52' E 031°02'0 0.0
2014-Dec-11 14:30S 29°52' E 031°02'0 0.0
2014-Dec-11 13:30S 29°52' E 031°02'0 0.0
2014-Dec-11 12:30S 29°52' E 031°02'0 0.0
2014-Dec-11 11:30S 29°52' E 031°02'0 0.0
2014-Dec-11 10:24S 29°52' E 031°02'0 0.0
2014-Dec-11 09:30S 29°52' E 031°02'0 0.0
2014-Dec-11 08:30S 29°52' E 031°02'0 0.0
2014-Dec-11 07:30S 29°52' E 031°02'1 1.5
2014-Dec-11 06:33S 29°52' E 031°04'1212.3
2014-Dec-11 05:33S 30°04' E 031°02'14817.7
2014-Dec-10 21:13S 32°04' E 029°22'115 3.2
2014-Dec-09 09:19S 33°21' E 027°40'3913.9
2014-Dec-09 06:31S 33°42' E 027°01'111 3.1
2014-Dec-07 19:14S 34°21' E 024°56'36414.1
2014-Dec-06 17:31S 33°37' E 017°40'  
Track history (hours):
 
Tides and Currents Weather Stations Pressure Air Temp Water Temp Dewpoint Dewpoint Depression Visibility Wind Speed Wind Dir Waves Ship Positions

Grand Ruby

Last reported at 2014-Dec-11 20:33 UTC. Time now 2014-Dec-20 20:10 UTC.
Position S 29°60' E 031°46'.
Warning: this ship's position is 8 days out of date.

Length 200 m; draft 9 m.

Type: Cargo ship. MMSI: 372399000.

Date/timePositionNaut miles runAvg speedWind from/ knotsBaromVisibWave heightAir tempDewpointWater temp
2014-Dec-11 20:33S 29°60' E 031°46'1515.3
2014-Dec-11 19:33S 29°56' E 031°29'1514.5
2014-Dec-11 18:33S 29°52' E 031°12'9 8.3
2014-Dec-11 17:30S 29°53' E 031°02'0 0.4
2014-Dec-11 16:30S 29°52' E 031°02'0 0.0
2014-Dec-11 15:30S 29°52' E 031°02'0 0.0
2014-Dec-11 14:30S 29°52' E 031°02'0 0.0
2014-Dec-11 13:30S 29°52' E 031°02'0 0.0
2014-Dec-11 12:30S 29°52' E 031°02'0 0.0
2014-Dec-11 11:30S 29°52' E 031°02'0 0.0
2014-Dec-11 10:24S 29°52' E 031°02'0 0.0
2014-Dec-11 09:30S 29°52' E 031°02'0 0.0
2014-Dec-11 08:30S 29°52' E 031°02'0 0.0
2014-Dec-11 07:30S 29°52' E 031°02'1 1.5
2014-Dec-11 06:33S 29°52' E 031°04'1212.3
2014-Dec-11 05:33S 30°04' E 031°02'14817.7
2014-Dec-10 21:13S 32°04' E 029°22'115 3.2
2014-Dec-09 09:19S 33°21' E 027°40'3913.9
2014-Dec-09 06:31S 33°42' E 027°01'111 3.1
2014-Dec-07 19:14S 34°21' E 024°56'36414.1
2014-Dec-06 17:31S 33°37' E 017°40'  

Dump ship's entire track history